createdAt,value
2019-03-01T00:01:26.481Z,61.48
2019-03-01T00:04:01.546Z,61.07
2019-03-01T00:06:43.376Z,60.78
2019-03-01T00:09:24.107Z,60.56
2019-03-01T00:12:02.420Z,60.44
2019-03-01T00:14:52.336Z,60.20
2019-03-01T00:17:44.752Z,60.71
2019-03-01T00:20:35.787Z,60.57
2019-03-01T00:23:21.189Z,60.69
2019-03-01T00:26:00.181Z,60.66
2019-03-01T00:28:47.643Z,60.54
2019-03-01T00:31:28.485Z,60.44
2019-03-01T00:34:33.007Z,60.48
2019-03-01T00:37:13.245Z,60.13
2019-03-01T00:39:48.580Z,60.16
2019-03-01T00:42:30.704Z,59.87
2019-03-01T00:44:59.448Z,60.02
2019-03-01T00:47:29.699Z,59.67
2019-03-01T00:50:01.460Z,59.55
2019-03-01T00:52:31.722Z,59.65
2019-03-01T00:55:01.015Z,59.71
2019-03-01T00:57:31.271Z,59.82
2019-03-01T01:00:00.677Z,59.86
2019-03-01T01:02:32.398Z,59.73
2019-03-01T01:05:02.708Z,59.93
2019-03-01T01:07:33.021Z,60.06
2019-03-01T01:10:02.370Z,60.10
2019-03-01T01:12:31.660Z,60.20
2019-03-01T01:15:00.334Z,60.17
2019-03-01T01:17:30.543Z,60.23
2019-03-01T01:20:00.783Z,60.61
2019-03-01T01:22:30.063Z,60.88
2019-03-01T01:24:59.994Z,60.74
2019-03-01T01:27:30.292Z,60.90
2019-03-01T01:30:02.417Z,60.64
2019-03-01T01:32:32.623Z,60.58
2019-03-01T01:35:01.936Z,60.47
2019-03-01T01:37:34.030Z,60.67
2019-03-01T01:40:04.326Z,60.33
2019-03-01T01:42:36.565Z,60.33
2019-03-01T01:45:08.973Z,60.31
2019-03-01T01:47:39.311Z,60.61
2019-03-01T01:50:10.398Z,60.66
2019-03-01T01:52:39.178Z,60.45
2019-03-01T01:55:09.623Z,60.57
2019-03-01T01:57:40.597Z,60.64
2019-03-01T02:00:13.865Z,60.44
2019-03-01T02:02:43.243Z,60.52
2019-03-01T02:05:13.697Z,60.43
2019-03-01T02:07:43.984Z,60.64
2019-03-01T02:10:14.352Z,60.43
2019-03-01T02:12:44.656Z,60.38
2019-03-01T02:15:16.016Z,60.26
2019-03-01T02:17:46.255Z,60.26
2019-03-01T02:20:16.847Z,60.09
2019-03-01T02:22:48.591Z,60.17
2019-03-01T02:25:20.503Z,60.23
2019-03-01T02:27:52.789Z,60.29
2019-03-01T02:30:31.535Z,60.13
2019-03-01T02:33:02.518Z,60.22
2019-03-01T02:35:33.770Z,60.41
2019-03-01T02:38:03.661Z,60.37
2019-03-01T02:40:40.311Z,60.79
2019-03-01T02:43:10.255Z,60.82
2019-03-01T02:45:39.740Z,61.48
2019-03-01T02:48:09.143Z,61.08
2019-03-01T02:50:41.128Z,61.27
2019-03-01T02:53:14.443Z,61.27
2019-03-01T02:55:46.136Z,62.02
2019-03-01T02:58:16.476Z,62.38
2019-03-01T03:00:50.316Z,62.69
2019-03-01T03:03:23.317Z,63.06
2019-03-01T03:05:59.305Z,63.35
2019-03-01T03:08:29.815Z,63.76
2019-03-01T03:11:03.704Z,63.91
2019-03-01T03:13:37.832Z,63.52
2019-03-01T03:16:09.553Z,63.56
2019-03-01T03:18:40.729Z,63.17
2019-03-01T03:21:12.051Z,63.11
2019-03-01T03:23:43.993Z,63.20
2019-03-01T03:26:16.460Z,63.22
2019-03-01T03:28:48.516Z,63.48
2019-03-01T03:31:19.372Z,63.37
2019-03-01T03:33:48.747Z,63.75
2019-03-01T03:36:19.223Z,64.70
2019-03-01T03:38:51.981Z,65.23
2019-03-01T03:41:21.352Z,65.82
2019-03-01T03:43:50.762Z,67.00
2019-03-01T03:46:21.202Z,66.78
2019-03-01T03:48:51.465Z,66.98
2019-03-01T03:51:20.745Z,67.34
2019-03-01T03:53:50.959Z,67.59
2019-03-01T03:56:20.301Z,67.46
2019-03-01T03:58:50.643Z,67.69
2019-03-01T04:01:20.910Z,67.67
2019-03-01T04:03:51.220Z,68.14
2019-03-01T04:06:21.661Z,68.29
2019-03-01T04:08:53.878Z,68.23
2019-03-01T04:11:25.203Z,68.67
2019-03-01T04:13:55.404Z,68.55
2019-03-01T04:16:24.660Z,68.66
2019-03-01T04:18:54.926Z,68.87
2019-03-01T04:21:24.208Z,69.02
2019-03-01T04:23:54.416Z,69.36
2019-03-01T04:26:24.649Z,69.63
2019-03-01T04:28:54.960Z,70.86
2019-03-01T04:31:25.331Z,70.75
2019-03-01T04:33:54.634Z,70.79
2019-03-01T04:36:23.884Z,71.15
2019-03-01T04:38:54.126Z,71.63
2019-03-01T04:41:23.399Z,71.09
2019-03-01T04:43:52.762Z,70.86
2019-03-01T04:46:21.998Z,70.90
2019-03-01T04:48:52.256Z,70.88
2019-03-01T04:51:22.534Z,70.89
2019-03-01T04:53:51.851Z,70.88
2019-03-01T04:56:22.321Z,70.69
2019-03-01T04:58:51.170Z,71.16
2019-03-01T05:01:27.633Z,70.81
2019-03-01T05:03:57.903Z,70.72
2019-03-01T05:06:28.141Z,70.71
2019-03-01T05:08:58.436Z,70.96
2019-03-01T05:11:27.189Z,70.75
2019-03-01T05:14:18.449Z,71.32
2019-03-01T05:16:51.300Z,71.49
2019-03-01T05:19:24.527Z,70.81
2019-03-01T05:21:57.029Z,70.95
2019-03-01T05:24:27.475Z,71.11
2019-03-01T05:27:01.453Z,70.75
2019-03-01T05:29:32.115Z,71.13
2019-03-01T05:32:02.420Z,70.61
2019-03-01T05:34:33.632Z,71.10
2019-03-01T05:37:03.820Z,70.55
2019-03-01T05:39:34.036Z,70.36
2019-03-01T05:42:04.275Z,71.05
2019-03-01T05:44:34.531Z,71.19
2019-03-01T05:47:04.733Z,71.10
2019-03-01T05:49:34.029Z,71.83
2019-03-01T05:52:04.596Z,72.39
2019-03-01T05:54:36.306Z,72.22
2019-03-01T05:57:06.620Z,72.61
2019-03-01T05:59:38.848Z,72.11
2019-03-01T06:02:38.060Z,72.26
2019-03-01T06:05:11.569Z,72.62
2019-03-01T06:07:53.707Z,72.52
2019-03-01T06:10:28.871Z,72.62
2019-03-01T06:13:06.891Z,73.19
2019-03-01T06:15:54.959Z,73.21
2019-03-01T06:18:49.683Z,73.25
2019-03-01T06:21:51.475Z,73.21
2019-03-01T06:24:32.312Z,73.93
2019-03-01T06:27:14.017Z,74.00
2019-03-01T06:29:54.816Z,74.43
2019-03-01T06:32:59.507Z,74.63
2019-03-01T06:35:32.770Z,74.92
2019-03-01T06:38:18.097Z,74.84
2019-03-01T06:41:24.625Z,75.27
2019-03-01T06:44:17.620Z,75.04
2019-03-01T06:47:11.911Z,75.09
2019-03-01T06:49:53.101Z,76.56
2019-03-01T06:52:26.070Z,77.49
2019-03-01T06:54:55.573Z,77.94
2019-03-01T06:57:27.283Z,78.46
2019-03-01T06:59:57.585Z,78.35
2019-03-01T07:02:29.455Z,77.45
2019-03-01T07:04:58.806Z,77.71
2019-03-01T07:07:29.105Z,76.70
2019-03-01T07:09:59.345Z,76.82
2019-03-01T07:12:28.796Z,76.55
2019-03-01T07:15:00.495Z,76.60
2019-03-01T07:17:29.815Z,76.99
2019-03-01T07:20:00.012Z,76.47
2019-03-01T07:22:29.379Z,75.99
2019-03-01T07:25:01.039Z,75.37
2019-03-01T07:27:31.366Z,74.85
2019-03-01T07:30:01.824Z,75.21
2019-03-01T07:32:31.170Z,74.96
2019-03-01T07:35:01.428Z,75.05
2019-03-01T07:37:30.725Z,75.35
2019-03-01T07:40:01.049Z,75.55
2019-03-01T07:42:31.310Z,74.85
2019-03-01T07:45:00.046Z,75.09
2019-03-01T07:47:30.419Z,74.87
2019-03-01T07:49:59.729Z,74.91
2019-03-01T07:52:29.965Z,74.85
2019-03-01T07:55:00.370Z,73.69
2019-03-01T07:57:31.704Z,72.36
2019-03-01T08:00:01.987Z,71.95
2019-03-01T08:02:35.889Z,70.77
2019-03-01T08:05:10.210Z,70.17
2019-03-01T08:07:39.535Z,69.11
2019-03-01T08:10:20.688Z,69.77
2019-03-01T08:12:50.958Z,70.30
2019-03-01T08:15:21.301Z,70.34
2019-03-01T08:17:54.223Z,70.56
2019-03-01T08:20:25.326Z,70.51
2019-03-01T08:22:59.789Z,71.35
2019-03-01T08:25:28.565Z,71.57
2019-03-01T08:27:58.944Z,72.88
2019-03-01T08:30:29.199Z,73.27
2019-03-01T08:33:02.662Z,73.40
2019-03-01T08:35:32.954Z,72.77
2019-03-01T08:38:02.570Z,73.76
2019-03-01T08:40:32.942Z,73.57
2019-03-01T08:43:03.159Z,73.70
2019-03-01T08:45:34.569Z,73.88
2019-03-01T08:48:04.782Z,72.59
2019-03-01T08:50:35.036Z,73.07
2019-03-01T08:53:05.330Z,71.25
2019-03-01T08:55:38.940Z,69.64
2019-03-01T08:58:11.291Z,68.84
2019-03-01T09:00:47.086Z,69.71
2019-03-01T09:03:23.156Z,70.05
2019-03-01T09:05:52.501Z,70.11
2019-03-01T09:08:21.272Z,70.83
2019-03-01T09:10:51.532Z,70.71
2019-03-01T09:13:21.849Z,71.18
2019-03-01T09:15:53.104Z,70.40
2019-03-01T09:18:22.532Z,70.82
2019-03-01T09:20:52.622Z,69.76
2019-03-01T09:23:26.448Z,70.08
2019-03-01T09:25:55.173Z,70.43
2019-03-01T09:28:24.445Z,69.52
2019-03-01T09:30:56.946Z,68.71
2019-03-01T09:33:28.705Z,68.72
2019-03-01T09:36:14.463Z,68.22
2019-03-01T09:38:44.621Z,67.86
2019-03-01T09:41:15.002Z,67.11
2019-03-01T09:43:45.353Z,66.59
2019-03-01T09:46:15.631Z,65.68
2019-03-01T09:48:49.438Z,65.48
2019-03-01T09:51:17.778Z,65.56
2019-03-01T09:53:47.056Z,65.87
2019-03-01T09:56:20.179Z,66.53
2019-03-01T10:01:46.029Z,66.96
2019-03-01T10:04:15.788Z,67.11
2019-03-01T10:06:44.887Z,67.82
2019-03-01T10:09:15.149Z,67.17
2019-03-01T10:11:47.094Z,67.10
2019-03-01T10:14:15.799Z,66.46
2019-03-01T10:16:46.966Z,65.86
2019-03-01T10:19:17.625Z,65.24
2019-03-01T10:21:46.989Z,64.30
2019-03-01T10:24:16.264Z,64.50
2019-03-01T10:26:45.602Z,64.28
2019-03-01T10:29:15.292Z,65.09
2019-03-01T10:31:45.938Z,64.86
2019-03-01T10:34:16.765Z,65.03
2019-03-01T10:36:49.844Z,65.48
2019-03-01T10:39:23.119Z,65.37
2019-03-01T10:41:54.996Z,64.83
2019-03-01T10:44:26.285Z,63.91
2019-03-01T10:46:56.497Z,63.35
2019-03-01T10:49:25.829Z,62.41
2019-03-01T10:51:56.904Z,63.10
2019-03-01T10:54:30.038Z,63.08
2019-03-01T10:57:00.420Z,62.64
2019-03-01T10:59:29.916Z,62.01
2019-03-01T11:01:59.001Z,62.51
2019-03-01T11:04:32.718Z,61.30
2019-03-01T11:07:03.027Z,60.89
2019-03-01T11:09:35.055Z,60.52
2019-03-01T11:12:04.846Z,61.34
2019-03-01T11:14:39.357Z,62.85
2019-03-01T11:17:11.806Z,62.64
2019-03-01T11:19:44.530Z,62.47
2019-03-01T11:22:15.237Z,61.72
2019-03-01T11:24:51.578Z,62.02
2019-03-01T11:27:23.573Z,62.38
2019-03-01T11:29:56.548Z,61.82
2019-03-01T11:32:32.016Z,61.46
2019-03-01T11:35:05.777Z,62.23
2019-03-01T11:37:37.418Z,62.13
2019-03-01T11:40:11.967Z,62.27
2019-03-01T11:42:41.328Z,61.64
2019-03-01T11:45:16.564Z,62.58
2019-03-01T11:47:50.432Z,62.28
2019-03-01T11:50:24.668Z,62.36
2019-03-01T11:52:56.703Z,62.19
2019-03-01T11:55:31.192Z,62.10
2019-03-01T11:58:01.457Z,61.67
2019-03-01T12:00:41.678Z,61.63
2019-03-01T12:03:11.926Z,60.79
2019-03-01T12:05:58.468Z,60.60
2019-03-01T12:08:32.692Z,60.84
2019-03-01T12:11:03.132Z,61.91
2019-03-01T12:13:34.607Z,62.23
2019-03-01T12:16:06.801Z,61.97
2019-03-01T12:18:37.608Z,61.74
2019-03-01T12:21:08.624Z,61.95
2019-03-01T12:23:37.940Z,61.18
2019-03-01T12:26:07.534Z,60.66
2019-03-01T12:28:38.800Z,59.99
2019-03-01T12:31:25.915Z,59.01
2019-03-01T12:33:57.874Z,59.04
2019-03-01T12:36:27.175Z,58.19
2019-03-01T12:38:57.513Z,58.06
2019-03-01T12:41:27.800Z,59.84
2019-03-01T12:43:58.996Z,62.18
2019-03-01T12:46:28.294Z,62.81
2019-03-01T12:48:58.514Z,63.50
2019-03-01T12:51:32.166Z,64.19
2019-03-01T12:54:03.023Z,64.61
2019-03-01T12:56:33.296Z,64.78
2019-03-01T12:59:03.685Z,65.04
2019-03-01T13:01:35.886Z,66.76
2019-03-01T13:04:10.446Z,68.55
2019-03-01T13:06:40.448Z,70.48
2019-03-01T13:09:13.863Z,71.64
2019-03-01T13:11:44.641Z,72.18
2019-03-01T13:14:14.714Z,72.76
2019-03-01T13:16:45.193Z,73.11
2019-03-01T13:19:14.544Z,72.40
2019-03-01T13:21:45.592Z,71.29
2019-03-01T13:24:16.386Z,70.78
2019-03-01T13:26:49.133Z,69.46
2019-03-01T13:29:22.294Z,68.28
2019-03-01T13:31:52.990Z,67.96
2019-03-01T13:34:26.674Z,67.17
2019-03-01T13:36:58.574Z,66.60
2019-03-01T13:42:20.010Z,65.49
2019-03-01T13:44:50.253Z,64.86
2019-03-01T13:47:20.594Z,65.48
2019-03-01T13:49:50.802Z,66.21
2019-03-01T13:52:20.883Z,66.97
2019-03-01T13:54:52.242Z,67.40
2019-03-01T13:57:23.799Z,67.97
2019-03-01T13:59:53.095Z,68.08
2019-03-01T14:02:24.139Z,68.26
2019-03-01T14:04:54.416Z,68.69
2019-03-01T14:07:24.946Z,68.71
2019-03-01T14:09:54.465Z,69.17
2019-03-01T14:12:26.308Z,68.86
2019-03-01T14:14:59.298Z,68.14
2019-03-01T14:17:29.747Z,68.11
2019-03-01T14:20:01.744Z,67.99
2019-03-01T14:22:32.893Z,67.89
2019-03-01T14:27:53.303Z,67.17
2019-03-01T14:30:29.149Z,67.37
2019-03-01T14:32:59.757Z,67.48
2019-03-01T14:35:30.032Z,66.83
2019-03-01T14:38:02.197Z,66.59
2019-03-01T14:40:32.531Z,66.82
2019-03-01T14:43:02.285Z,66.43
2019-03-01T14:45:34.482Z,66.61
2019-03-01T14:48:08.161Z,67.94
2019-03-01T14:50:35.717Z,69.37
2019-03-01T14:53:05.057Z,70.14
2019-03-01T14:56:11.901Z,70.23
2019-03-01T14:58:58.804Z,69.79
2019-03-01T15:01:31.529Z,68.10
2019-03-01T15:04:03.278Z,66.65
2019-03-01T15:06:37.188Z,65.97
2019-03-01T15:09:09.327Z,66.22
2019-03-01T15:11:44.334Z,66.34
2019-03-01T15:14:13.740Z,67.24
2019-03-01T15:16:44.438Z,67.46
2019-03-01T15:19:16.078Z,66.53
2019-03-01T15:21:49.167Z,66.34
2019-03-01T15:24:18.476Z,65.09
2019-03-01T15:26:51.859Z,64.92
2019-03-01T15:29:22.269Z,64.79
2019-03-01T15:31:55.043Z,65.04
2019-03-01T15:34:24.950Z,65.04
2019-03-01T15:36:55.971Z,64.51
2019-03-01T15:39:29.880Z,65.33
2019-03-01T15:42:01.495Z,65.29
2019-03-01T15:44:33.993Z,65.67
2019-03-01T15:47:04.343Z,65.43
2019-03-01T15:49:35.152Z,65.09
2019-03-01T15:52:04.422Z,64.77
2019-03-01T15:54:35.847Z,65.26
2019-03-01T15:57:07.118Z,65.45
2019-03-01T15:59:36.420Z,65.35
2019-03-01T16:02:06.708Z,65.29
2019-03-01T16:04:36.044Z,65.61
2019-03-01T16:07:06.597Z,66.25
2019-03-01T16:09:37.940Z,66.10
2019-03-01T16:12:08.396Z,66.76
2019-03-01T16:14:39.079Z,67.13
2019-03-01T16:17:08.361Z,67.53
2019-03-01T16:19:37.848Z,67.43
2019-03-01T16:22:08.213Z,67.28
2019-03-01T16:24:41.597Z,67.07
2019-03-01T16:27:15.159Z,67.09
2019-03-01T16:29:43.215Z,67.28
2019-03-01T16:32:13.479Z,67.03
2019-03-01T16:34:42.857Z,66.91
2019-03-01T16:37:13.109Z,67.11
2019-03-01T16:39:42.413Z,67.03
2019-03-01T16:42:18.089Z,67.22
2019-03-01T16:44:50.057Z,67.37
2019-03-01T16:47:23.320Z,67.51
2019-03-01T16:49:54.507Z,67.74
2019-03-01T16:52:26.410Z,67.90
2019-03-01T16:55:04.149Z,68.45
2019-03-01T16:57:33.458Z,68.59
2019-03-01T17:00:02.803Z,68.42
2019-03-01T17:02:33.106Z,68.70
2019-03-01T17:05:04.824Z,68.78
2019-03-01T17:07:37.554Z,68.98
2019-03-01T17:10:11.675Z,68.79
2019-03-01T17:12:42.067Z,68.94
2019-03-01T17:15:23.151Z,68.78
2019-03-01T17:17:51.972Z,69.56
2019-03-01T17:20:24.395Z,69.44
2019-03-01T17:22:54.707Z,69.79
2019-03-01T17:25:26.877Z,69.90
2019-03-01T17:28:00.141Z,69.92
2019-03-01T17:30:30.547Z,69.82
2019-03-01T17:32:59.820Z,69.75
2019-03-01T17:35:32.459Z,70.44
2019-03-01T17:38:03.993Z,70.75
2019-03-01T17:40:35.747Z,71.11
2019-03-01T17:43:04.788Z,71.39
2019-03-01T17:45:37.844Z,71.32
2019-03-01T17:48:08.049Z,71.53
2019-03-01T17:50:37.327Z,72.04
2019-03-01T17:53:09.542Z,72.02
2019-03-01T17:55:43.763Z,72.12
2019-03-01T17:58:13.965Z,71.69
2019-03-01T18:00:47.621Z,71.33
2019-03-01T18:03:19.437Z,71.54
2019-03-01T18:05:50.125Z,71.84
2019-03-01T18:08:22.253Z,71.80
2019-03-01T18:10:52.471Z,72.29
2019-03-01T18:13:22.764Z,72.27
2019-03-01T18:15:54.959Z,72.29
2019-03-01T18:18:24.283Z,72.79
2019-03-01T18:20:56.462Z,72.57
2019-03-01T18:23:30.094Z,72.52
2019-03-01T18:26:03.343Z,72.40
2019-03-01T18:28:32.264Z,72.55
2019-03-01T18:31:04.399Z,72.70
2019-03-01T18:33:34.697Z,72.69
2019-03-01T18:36:04.947Z,72.99
2019-03-01T18:38:33.697Z,73.19
2019-03-01T18:41:04.528Z,73.37
2019-03-01T18:43:33.884Z,73.42
2019-03-01T18:46:02.344Z,73.31
2019-03-01T18:48:33.610Z,73.28
2019-03-01T18:51:03.472Z,73.52
2019-03-01T18:53:36.972Z,73.79
2019-03-01T18:56:06.260Z,73.61
2019-03-01T18:58:36.590Z,73.72
2019-03-01T19:01:10.916Z,74.07
2019-03-01T19:03:40.290Z,74.32
2019-03-01T19:06:12.908Z,74.23
2019-03-01T19:08:43.942Z,74.29
2019-03-01T19:11:12.653Z,74.17
2019-03-01T19:13:44.913Z,74.24
2019-03-01T19:16:15.172Z,74.26
2019-03-01T19:18:48.231Z,74.25
2019-03-01T19:21:18.255Z,74.39
2019-03-01T19:23:48.576Z,74.39
2019-03-01T19:26:18.765Z,74.22
2019-03-01T19:28:49.120Z,74.22
2019-03-01T19:31:21.598Z,74.19
2019-03-01T19:33:52.804Z,74.28
2019-03-01T19:36:23.149Z,74.24
2019-03-01T19:38:56.716Z,73.89
2019-03-01T19:41:27.343Z,74.18
2019-03-01T19:43:57.977Z,74.07
2019-03-01T19:46:30.324Z,73.84
2019-03-01T19:49:00.590Z,73.42
2019-03-01T19:51:33.796Z,73.39
2019-03-01T19:54:08.389Z,73.18
2019-03-01T19:56:39.762Z,73.21
2019-03-01T19:59:09.223Z,73.20
2019-03-01T20:04:29.487Z,73.27
2019-03-01T20:07:03.196Z,73.10
2019-03-01T20:09:36.546Z,73.17
2019-03-01T20:12:05.488Z,73.17
2019-03-01T20:14:35.859Z,73.08
2019-03-01T20:17:04.668Z,72.99
2019-03-01T20:19:35.182Z,73.40
2019-03-01T20:22:04.464Z,73.19
2019-03-01T20:24:40.189Z,73.16
2019-03-01T20:27:07.928Z,73.34
2019-03-01T20:29:38.345Z,73.42
2019-03-01T20:32:08.530Z,73.46
2019-03-01T20:34:38.946Z,73.28
2019-03-01T20:37:09.652Z,73.31
2019-03-01T20:39:39.915Z,73.43
2019-03-01T20:42:10.258Z,73.27
2019-03-01T20:44:40.564Z,73.14
2019-03-01T20:47:10.876Z,73.34
2019-03-01T20:49:42.053Z,73.29
2019-03-01T20:52:22.350Z,73.57
2019-03-01T20:54:57.751Z,73.61
2019-03-01T20:57:28.911Z,73.49
2019-03-01T21:00:02.022Z,73.84
2019-03-01T21:02:31.540Z,73.71
2019-03-01T21:05:05.635Z,73.85
2019-03-01T21:07:40.584Z,73.52
2019-03-01T21:10:16.986Z,73.06
2019-03-01T21:12:46.540Z,73.17
2019-03-01T21:15:21.303Z,73.57
2019-03-01T21:17:53.075Z,73.48
2019-03-01T21:20:23.966Z,73.54
2019-03-01T21:22:55.115Z,73.53
2019-03-01T21:25:28.716Z,73.79
2019-03-01T21:28:00.977Z,73.71
2019-03-01T21:30:38.004Z,74.29
2019-03-01T21:33:09.745Z,76.45
2019-03-01T21:35:40.595Z,78.03
2019-03-01T21:38:13.859Z,79.04
2019-03-01T21:40:44.007Z,79.66
2019-03-01T21:43:13.341Z,80.24
2019-03-01T21:45:43.702Z,80.76
2019-03-01T21:48:13.991Z,81.00
2019-03-01T21:50:45.617Z,81.29
2019-03-01T21:53:15.822Z,80.72
2019-03-01T21:55:45.071Z,80.58
2019-03-01T21:58:17.461Z,79.63
2019-03-01T22:00:48.589Z,80.19
2019-03-01T22:03:18.857Z,80.45
2019-03-01T22:05:48.593Z,80.38
2019-03-01T22:08:19.652Z,80.80
2019-03-01T22:10:52.529Z,80.99
2019-03-01T22:13:23.727Z,80.79
2019-03-01T22:16:00.936Z,81.14
2019-03-01T22:18:29.781Z,81.01
2019-03-01T22:20:58.269Z,81.29
2019-03-01T22:23:28.624Z,81.14
2019-03-01T22:25:57.962Z,81.79
2019-03-01T22:28:28.350Z,81.81
2019-03-01T22:31:01.199Z,81.87
2019-03-01T22:33:31.699Z,81.83
2019-03-01T22:36:00.435Z,81.53
2019-03-01T22:38:30.127Z,81.33
2019-03-01T22:41:03.953Z,81.15
2019-03-01T22:43:33.169Z,81.26
2019-03-01T22:46:05.394Z,81.25
2019-03-01T22:48:36.009Z,81.63
2019-03-01T22:51:05.748Z,81.96
2019-03-01T22:53:38.578Z,81.77
2019-03-01T22:56:08.554Z,81.91
2019-03-01T22:58:41.018Z,82.02
2019-03-01T23:01:12.752Z,81.83
2019-03-01T23:03:46.199Z,80.58
2019-03-01T23:06:16.432Z,81.00
2019-03-01T23:08:46.640Z,81.01
2019-03-01T23:11:15.980Z,81.06
2019-03-01T23:13:46.990Z,81.03
2019-03-01T23:16:18.803Z,80.76
2019-03-01T23:18:56.352Z,80.90
2019-03-01T23:21:21.328Z,80.91
2019-03-01T23:23:51.603Z,81.25
2019-03-01T23:26:22.421Z,81.05
2019-03-01T23:28:52.688Z,81.20
2019-03-01T23:31:21.964Z,81.55
2019-03-01T23:33:54.069Z,81.48
2019-03-01T23:36:24.956Z,81.23
2019-03-01T23:38:56.294Z,81.25
2019-03-01T23:41:26.611Z,80.90
2019-03-01T23:43:56.879Z,80.45
2019-03-01T23:46:29.426Z,81.05
2019-03-01T23:49:05.996Z,80.91
2019-03-01T23:51:29.768Z,81.13
2019-03-01T23:53:59.073Z,80.89
2019-03-01T23:56:29.727Z,80.87
2019-03-01T23:59:00.426Z,80.77
